createdAt,value
2023-04-01T00:00:01.791Z,8.22
2023-04-01T00:03:14.240Z,8.18
2023-04-01T00:06:18.914Z,8.21
2023-04-01T00:09:21.543Z,8.21
2023-04-01T00:12:26.060Z,8.15
2023-04-01T00:15:28.291Z,8.18
2023-04-01T00:18:31.551Z,8.26
2023-04-01T00:21:34.121Z,8.30
2023-04-01T00:24:36.691Z,8.18
2023-04-01T00:27:38.986Z,8.05
2023-04-01T00:30:41.766Z,8.15
2023-04-01T00:33:44.250Z,8.06
2023-04-01T00:36:46.734Z,8.03
2023-04-01T00:39:49.349Z,8.09
2023-04-01T00:42:52.298Z,8.09
2023-04-01T00:45:54.498Z,7.99
2023-04-01T00:48:57.583Z,7.98
2023-04-01T00:52:02.495Z,8.08
2023-04-01T00:55:08.350Z,8.12
2023-04-01T00:58:16.781Z,8.09
2023-04-01T01:01:23.007Z,8.08
2023-04-01T01:04:31.300Z,8.19
2023-04-01T01:07:42.933Z,8.19
2023-04-01T01:10:50.551Z,8.18
2023-04-01T01:14:44.190Z,8.33
2023-04-01T01:17:46.475Z,8.35
2023-04-01T01:21:07.779Z,8.24
2023-04-01T01:24:43.237Z,8.26
2023-04-01T01:27:55.747Z,8.29
2023-04-01T01:31:17.071Z,8.41
2023-04-01T01:34:53.842Z,8.40
2023-04-01T01:38:00.923Z,8.36
2023-04-01T01:41:06.416Z,8.35
2023-04-01T01:44:12.161Z,8.33
2023-04-01T01:47:16.389Z,8.31
2023-04-01T01:50:20.529Z,8.38
2023-04-01T01:53:23.147Z,8.34
2023-04-01T01:56:29.553Z,8.40
2023-04-01T01:59:34.206Z,8.38
2023-04-01T02:02:36.475Z,8.49
2023-04-01T02:05:40.653Z,8.44
2023-04-01T02:08:42.931Z,8.57
2023-04-01T02:12:00.466Z,8.50
2023-04-01T02:15:13.418Z,8.54
2023-04-01T02:18:17.351Z,8.52
2023-04-01T02:21:23.194Z,8.48
2023-04-01T02:24:29.068Z,8.43
2023-04-01T02:27:31.948Z,8.45
2023-04-01T02:30:37.650Z,8.47
2023-04-01T02:33:40.939Z,8.47
2023-04-01T02:36:43.739Z,8.51
2023-04-01T02:39:46.295Z,8.47
2023-04-01T02:42:48.534Z,8.50
2023-04-01T02:45:51.329Z,8.69
2023-04-01T02:48:54.642Z,8.77
2023-04-01T02:51:57.196Z,8.68
2023-04-01T02:54:59.395Z,8.62
2023-04-01T02:58:02.678Z,8.52
2023-04-01T03:01:05.316Z,8.50
2023-04-01T03:04:07.902Z,8.39
2023-04-01T03:07:11.240Z,8.30
2023-04-01T03:10:13.695Z,8.20
2023-04-01T03:13:15.760Z,8.02
2023-04-01T03:16:19.034Z,8.06
2023-04-01T03:19:21.301Z,8.03
2023-04-01T03:22:24.022Z,8.08
2023-04-01T03:25:26.233Z,8.12
2023-04-01T03:28:28.726Z,8.09
2023-04-01T03:31:31.079Z,8.14
2023-04-01T03:34:33.862Z,8.33
2023-04-01T03:37:36.299Z,8.33
2023-04-01T03:40:42.880Z,8.27
2023-04-01T03:43:45.622Z,8.36
2023-04-01T03:46:48.164Z,8.36
2023-04-01T03:49:50.904Z,8.22
2023-04-01T03:52:53.464Z,8.20
2023-04-01T03:55:56.624Z,8.17
2023-04-01T03:58:59.467Z,8.20
2023-04-01T04:02:01.773Z,8.25
2023-04-01T04:05:04.699Z,8.33
2023-04-01T04:08:09.203Z,8.19
2023-04-01T04:11:11.823Z,8.23
2023-04-01T04:14:14.476Z,8.28
2023-04-01T04:17:17.445Z,8.17
2023-04-01T04:20:19.795Z,8.05
2023-04-01T04:23:22.614Z,8.01
2023-04-01T04:26:24.895Z,8.00
2023-04-01T04:29:27.881Z,8.01
2023-04-01T04:32:31.247Z,7.93
2023-04-01T04:35:34.345Z,7.96
2023-04-01T04:38:37.014Z,7.99
2023-04-01T04:41:39.854Z,8.02
2023-04-01T04:44:42.094Z,8.06
2023-04-01T04:47:44.589Z,8.21
2023-04-01T04:50:51.865Z,8.37
2023-04-01T04:53:54.788Z,8.49
2023-04-01T04:56:58.180Z,8.60
2023-04-01T05:00:01.211Z,8.73
2023-04-01T05:03:04.706Z,8.94
2023-04-01T05:06:10.280Z,9.12
2023-04-01T05:09:12.746Z,9.29
2023-04-01T05:12:15.903Z,9.48
2023-04-01T05:15:20.451Z,9.53
2023-04-01T05:18:23.489Z,9.83
2023-04-01T05:21:25.694Z,10.11
2023-04-01T05:24:28.688Z,10.94
2023-04-01T05:27:31.072Z,12.31
2023-04-01T05:30:33.530Z,12.97
2023-04-01T05:33:36.578Z,13.37
2023-04-01T05:36:40.804Z,13.79
2023-04-01T05:39:43.238Z,14.16
2023-04-01T05:42:45.846Z,15.40
2023-04-01T05:45:49.612Z,15.94
2023-04-01T05:48:55.404Z,16.01
2023-04-01T05:51:59.114Z,15.81
2023-04-01T05:55:01.798Z,15.55
2023-04-01T05:58:04.305Z,15.66
2023-04-01T06:01:14.093Z,15.50
2023-04-01T06:04:19.365Z,15.21
2023-04-01T06:07:21.615Z,14.68
2023-04-01T06:10:40.730Z,14.70
2023-04-01T06:14:19.548Z,13.71
2023-04-01T06:18:03.483Z,13.71
2023-04-01T06:21:21.477Z,12.99
2023-04-01T06:24:31.982Z,12.64
2023-04-01T06:28:03.452Z,12.42
2023-04-01T06:31:50.583Z,12.41
2023-04-01T06:35:12.262Z,13.86
2023-04-01T06:38:29.520Z,14.73
2023-04-01T06:41:51.762Z,15.54
2023-04-01T06:45:07.923Z,16.39
2023-04-01T06:48:46.400Z,16.48
2023-04-01T06:52:03.590Z,16.51
2023-04-01T06:55:29.286Z,16.07
2023-04-01T06:58:42.674Z,17.35
2023-04-01T07:02:19.324Z,17.50
2023-04-01T07:05:23.970Z,16.30
2023-04-01T07:08:30.519Z,16.29
2023-04-01T07:11:38.143Z,17.50
2023-04-01T07:14:44.468Z,18.06
2023-04-01T07:17:53.854Z,19.07
2023-04-01T07:20:56.537Z,19.15
2023-04-01T07:24:05.999Z,17.16
2023-04-01T07:27:14.319Z,17.07
2023-04-01T07:30:22.799Z,17.14
2023-04-01T07:33:28.468Z,17.42
2023-04-01T07:36:49.679Z,17.27
2023-04-01T07:40:21.849Z,16.00
2023-04-01T07:43:53.760Z,15.04
2023-04-01T07:47:18.412Z,14.94
2023-04-01T07:50:28.646Z,14.67
2023-04-01T07:53:58.231Z,14.80
2023-04-01T07:57:24.095Z,15.00
2023-04-01T08:00:51.053Z,15.38
2023-04-01T08:04:24.275Z,15.00
2023-04-01T08:07:43.252Z,15.79
2023-04-01T08:11:03.855Z,15.73
2023-04-01T08:14:57.019Z,14.89
2023-04-01T08:18:30.762Z,14.21
2023-04-01T08:21:52.206Z,14.16
2023-04-01T08:25:00.824Z,14.29
2023-04-01T08:28:24.590Z,14.30
2023-04-01T08:31:54.698Z,14.20
2023-04-01T08:35:16.429Z,14.36
2023-04-01T08:38:38.940Z,15.33
2023-04-01T08:41:57.495Z,14.93
2023-04-01T08:45:14.271Z,15.40
2023-04-01T08:48:31.261Z,15.48
2023-04-01T08:51:56.925Z,15.10
2023-04-01T08:55:02.397Z,15.36
2023-04-01T08:58:08.792Z,14.83
2023-04-01T09:01:14.829Z,14.55
2023-04-01T09:05:11.586Z,14.78
2023-04-01T09:08:20.264Z,14.43
2023-04-01T09:11:53.089Z,14.66
2023-04-01T09:15:32.663Z,14.53
2023-04-01T09:19:28.052Z,14.93
2023-04-01T09:23:07.789Z,15.21
2023-04-01T09:26:29.333Z,15.64
2023-04-01T09:30:01.926Z,15.41
2023-04-01T09:33:44.160Z,14.98
2023-04-01T09:36:52.000Z,15.05
2023-04-01T09:40:27.340Z,15.30
2023-04-01T09:43:45.988Z,14.31
2023-04-01T09:47:28.945Z,14.10
2023-04-01T09:50:45.241Z,14.05
2023-04-01T09:53:54.643Z,13.76
2023-04-01T09:57:11.352Z,14.00
2023-04-01T10:00:20.543Z,13.93
2023-04-01T10:04:01.453Z,13.94
2023-04-01T10:07:30.014Z,14.44
2023-04-01T10:10:32.412Z,14.34
2023-04-01T10:13:47.040Z,14.14
2023-04-01T10:17:26.933Z,14.06
2023-04-01T10:20:54.439Z,14.01
2023-04-01T10:24:13.337Z,14.32
2023-04-01T10:27:37.494Z,14.58
2023-04-01T10:31:11.252Z,14.62
2023-04-01T10:34:56.117Z,14.43
2023-04-01T10:38:46.844Z,14.47
2023-04-01T10:42:30.817Z,14.58
2023-04-01T10:45:47.802Z,15.84
2023-04-01T10:49:06.407Z,16.64
2023-04-01T10:52:43.850Z,15.11
2023-04-01T10:56:10.337Z,15.14
2023-04-01T10:59:21.946Z,15.71
2023-04-01T11:02:49.853Z,16.17
2023-04-01T11:06:25.398Z,15.75
2023-04-01T11:10:05.592Z,16.02
2023-04-01T11:13:25.628Z,15.67
2023-04-01T11:16:56.016Z,16.61
2023-04-01T11:20:20.112Z,17.43
2023-04-01T11:23:55.061Z,17.30
2023-04-01T11:27:16.889Z,16.46
2023-04-01T11:31:14.107Z,16.17
2023-04-01T11:34:35.226Z,16.04
2023-04-01T11:37:50.216Z,16.78
2023-04-01T11:41:03.259Z,16.35
2023-04-01T11:44:19.022Z,15.58
2023-04-01T11:47:36.739Z,14.93
2023-04-01T11:50:47.807Z,14.48
2023-04-01T11:54:03.291Z,13.87
2023-04-01T11:57:14.030Z,13.52
2023-04-01T12:00:41.551Z,13.47
2023-04-01T12:04:12.155Z,13.74
2023-04-01T12:07:26.188Z,13.79
2023-04-01T12:11:09.473Z,13.96
2023-04-01T12:14:32.480Z,14.12
2023-04-01T12:17:50.064Z,14.20
2023-04-01T12:21:12.223Z,14.63
2023-04-01T12:24:37.528Z,15.02
2023-04-01T12:28:07.973Z,15.25
2023-04-01T12:31:47.343Z,15.69
2023-04-01T12:35:07.514Z,16.50
2023-04-01T12:38:29.480Z,16.66
2023-04-01T12:42:13.432Z,16.21
2023-04-01T12:45:33.038Z,15.21
2023-04-01T12:49:06.478Z,15.14
2023-04-01T12:52:36.499Z,15.11
2023-04-01T12:55:44.177Z,15.44
2023-04-01T12:59:08.840Z,15.57
2023-04-01T13:02:14.972Z,15.54
2023-04-01T13:05:29.447Z,15.41
2023-04-01T13:08:56.489Z,15.71
2023-04-01T13:12:24.055Z,16.19
2023-04-01T13:15:34.960Z,16.06
2023-04-01T13:18:40.648Z,15.75
2023-04-01T13:21:59.706Z,15.59
2023-04-01T13:25:28.060Z,15.73
2023-04-01T13:28:58.384Z,15.22
2023-04-01T13:32:16.263Z,15.08
2023-04-01T13:35:25.978Z,14.76
2023-04-01T13:38:47.034Z,15.12
2023-04-01T13:42:07.378Z,15.20
2023-04-01T13:45:28.072Z,15.11
2023-04-01T13:49:04.356Z,15.27
2023-04-01T13:52:31.004Z,15.14
2023-04-01T13:55:36.384Z,15.31
2023-04-01T13:58:47.042Z,15.16
2023-04-01T14:02:06.364Z,14.78
2023-04-01T14:05:43.176Z,14.65
2023-04-01T14:09:00.892Z,14.31
2023-04-01T14:12:21.826Z,14.42
2023-04-01T14:15:39.757Z,14.57
2023-04-01T14:19:09.060Z,14.56
2023-04-01T14:22:37.617Z,14.28
2023-04-01T14:25:46.363Z,14.40
2023-04-01T14:29:37.388Z,14.32
2023-04-01T14:33:17.755Z,14.23
2023-04-01T14:36:22.657Z,14.06
2023-04-01T14:39:43.959Z,13.94
2023-04-01T14:43:07.737Z,14.35
2023-04-01T14:46:18.291Z,14.68
2023-04-01T14:49:52.669Z,15.06
2023-04-01T14:53:01.075Z,15.47
2023-04-01T14:56:05.692Z,15.53
2023-04-01T14:59:11.611Z,15.64
2023-04-01T15:02:42.693Z,15.94
2023-04-01T15:05:56.455Z,15.96
2023-04-01T15:09:32.821Z,15.77
2023-04-01T15:13:01.274Z,15.65
2023-04-01T15:16:09.205Z,15.15
2023-04-01T15:19:30.845Z,15.17
2023-04-01T15:22:50.863Z,15.54
2023-04-01T15:26:31.421Z,15.80
2023-04-01T15:30:24.811Z,15.91
2023-04-01T15:33:56.420Z,15.84
2023-04-01T15:37:04.586Z,15.84
2023-04-01T15:40:24.051Z,15.89
2023-04-01T15:43:55.791Z,15.84
2023-04-01T15:46:59.122Z,15.63
2023-04-01T15:50:19.806Z,15.51
2023-04-01T15:53:31.697Z,15.27
2023-04-01T15:56:58.944Z,15.34
2023-04-01T16:00:27.383Z,15.49
2023-04-01T16:03:44.480Z,15.54
2023-04-01T16:07:03.532Z,15.36
2023-04-01T16:10:36.799Z,15.34
2023-04-01T16:14:05.019Z,15.24
2023-04-01T16:17:52.557Z,15.17
2023-04-01T16:21:21.929Z,14.97
2023-04-01T16:24:24.436Z,14.84
2023-04-01T16:27:37.414Z,14.82
2023-04-01T16:30:47.954Z,14.78
2023-04-01T16:33:52.928Z,14.88
2023-04-01T16:37:20.731Z,14.79
2023-04-01T16:40:46.020Z,14.72
2023-04-01T16:44:01.200Z,14.53
2023-04-01T16:47:16.779Z,14.36
2023-04-01T16:50:19.256Z,14.22
2023-04-01T16:53:54.060Z,14.20
2023-04-01T16:57:05.610Z,13.94
2023-04-01T17:00:21.158Z,13.88
2023-04-01T17:03:33.074Z,13.68
2023-04-01T17:06:54.701Z,13.44
2023-04-01T17:10:15.386Z,13.39
2023-04-01T17:13:36.162Z,13.37
2023-04-01T17:17:06.817Z,13.10
2023-04-01T17:20:37.725Z,13.09
2023-04-01T17:24:01.573Z,13.08
2023-04-01T17:27:49.623Z,12.95
2023-04-01T17:31:01.569Z,12.84
2023-04-01T17:34:22.500Z,12.77
2023-04-01T17:37:33.017Z,12.59
2023-04-01T17:41:16.535Z,12.73
2023-04-01T17:44:50.321Z,12.71
2023-04-01T17:48:23.776Z,12.55
2023-04-01T17:51:41.811Z,12.52
2023-04-01T17:54:52.256Z,12.47
2023-04-01T17:58:18.964Z,12.27
2023-04-01T18:01:41.845Z,12.03
2023-04-01T18:04:56.595Z,11.89
2023-04-01T18:08:40.333Z,11.79
2023-04-01T18:12:28.193Z,11.71
2023-04-01T18:16:13.845Z,11.75
2023-04-01T18:19:28.591Z,11.79
2023-04-01T18:22:39.451Z,11.69
2023-04-01T18:25:49.040Z,11.75
2023-04-01T18:28:59.580Z,11.54
2023-04-01T18:32:12.077Z,11.44
2023-04-01T18:35:29.751Z,11.40
2023-04-01T18:38:37.454Z,11.33
2023-04-01T18:42:00.953Z,11.41
2023-04-01T18:45:35.547Z,11.42
2023-04-01T18:48:58.745Z,11.48
2023-04-01T18:52:17.310Z,11.53
2023-04-01T18:55:23.908Z,11.52
2023-04-01T18:58:51.561Z,11.58
2023-04-01T19:02:14.908Z,11.38
2023-04-01T19:05:24.226Z,11.22
2023-04-01T19:08:37.368Z,11.06
2023-04-01T19:11:57.117Z,10.94
2023-04-01T19:15:21.343Z,10.91
2023-04-01T19:18:36.662Z,10.89
2023-04-01T19:21:56.462Z,10.93
2023-04-01T19:25:18.063Z,10.95
2023-04-01T19:28:54.438Z,10.99
2023-04-01T19:32:16.042Z,10.92
2023-04-01T19:35:30.254Z,10.94
2023-04-01T19:38:40.274Z,11.27
2023-04-01T19:42:08.370Z,11.40
2023-04-01T19:45:36.285Z,11.47
2023-04-01T19:48:57.297Z,11.39
2023-04-01T19:52:30.593Z,10.95
2023-04-01T19:55:51.407Z,10.67
2023-04-01T19:59:14.432Z,10.42
2023-04-01T20:02:52.239Z,10.23
2023-04-01T20:06:38.473Z,10.06
2023-04-01T20:09:59.581Z,9.88
2023-04-01T20:13:11.424Z,9.75
2023-04-01T20:16:16.368Z,9.63
2023-04-01T20:19:28.907Z,9.54
2023-04-01T20:23:03.103Z,9.41
2023-04-01T20:26:11.386Z,9.34
2023-04-01T20:29:22.797Z,9.29
2023-04-01T20:33:10.672Z,9.19
2023-04-01T20:36:35.717Z,9.12
2023-04-01T20:40:00.124Z,9.02
2023-04-01T20:43:25.643Z,8.95
2023-04-01T20:46:31.011Z,8.86
2023-04-01T20:49:46.980Z,8.78
2023-04-01T20:53:12.632Z,8.73
2023-04-01T20:56:17.750Z,8.76
2023-04-01T20:59:26.929Z,8.72
2023-04-01T21:03:00.510Z,8.72
2023-04-01T21:06:28.898Z,8.70
2023-04-01T21:09:42.953Z,8.60
2023-04-01T21:13:08.454Z,8.57
2023-04-01T21:16:50.456Z,8.51
2023-04-01T21:20:10.965Z,8.45
2023-04-01T21:23:30.242Z,8.37
2023-04-01T21:26:40.266Z,8.30
2023-04-01T21:30:20.040Z,8.23
2023-04-01T21:33:37.300Z,8.17
2023-04-01T21:37:01.594Z,8.20
2023-04-01T21:40:25.520Z,8.29
2023-04-01T21:43:47.909Z,8.33
2023-04-01T21:47:21.590Z,8.29
2023-04-01T21:50:23.717Z,8.28
2023-04-01T21:53:56.557Z,8.34
2023-04-01T21:57:26.745Z,8.33
2023-04-01T22:00:32.400Z,8.71
2023-04-01T22:03:59.679Z,8.63
2023-04-01T22:07:04.949Z,8.67
2023-04-01T22:10:19.444Z,8.42
2023-04-01T22:13:31.956Z,8.30
2023-04-01T22:16:49.512Z,8.23
2023-04-01T22:20:06.453Z,8.17
2023-04-01T22:23:11.861Z,8.18
2023-04-01T22:26:39.510Z,8.23
2023-04-01T22:30:04.065Z,8.46
2023-04-01T22:33:21.489Z,8.51
2023-04-01T22:36:56.244Z,8.43
2023-04-01T22:39:58.325Z,8.56
2023-04-01T22:43:07.493Z,8.56
2023-04-01T22:46:38.155Z,8.51
2023-04-01T22:49:47.786Z,8.41
2023-04-01T22:52:59.869Z,8.40
2023-04-01T22:56:08.428Z,8.39
2023-04-01T22:59:25.131Z,8.55
2023-04-01T23:02:36.122Z,8.93
2023-04-01T23:05:47.069Z,9.35
2023-04-01T23:08:57.735Z,9.68
2023-04-01T23:12:05.626Z,9.84
2023-04-01T23:15:15.389Z,9.72
2023-04-01T23:18:36.401Z,9.63
2023-04-01T23:21:49.409Z,9.66
2023-04-01T23:24:58.812Z,9.53
2023-04-01T23:28:16.858Z,9.52
2023-04-01T23:31:38.379Z,9.52
2023-04-01T23:34:46.770Z,9.60
2023-04-01T23:37:48.943Z,9.38
2023-04-01T23:40:54.622Z,9.33
2023-04-01T23:44:02.532Z,9.29
2023-04-01T23:47:06.932Z,9.20
2023-04-01T23:50:19.604Z,9.21
2023-04-01T23:53:26.195Z,9.06
2023-04-01T23:56:49.423Z,8.93
